Time;durP1;ratioP1;P1;durP2;ratioP2;P2;SDS_P1;SDS_P2;PMS_P1;PMS_P2;Temp;Humidity;BMP_temperature;BMP_pressure;BME280_temperature;BME280_humidity;BME280_pressure;Samples;Min_cycle;Max_cycle;Signal;HPM_P1;HPM_P2
2023/11/18 02:49:48;;;;;;;1999.90;999.90;;;;;;;;;;5747174;22;20290;-69
2023/11/18 02:52:34;;;;;;;1999.90;999.90;;;;;;;;;;5047914;28;20272;-69
2023/11/18 02:55:21;;;;;;;1999.90;999.90;;;;;;;;;;5048651;28;20215;-69
2023/11/18 02:58:07;;;;;;;1999.90;999.90;;;;;;;;;;5032292;28;20337;-69
2023/11/18 03:00:53;;;;;;;1999.90;999.90;;;;;;;;;;5052424;28;20277;-69
2023/11/18 03:03:39;;;;;;;1999.90;999.90;;;;;;;;;;5047158;28;20210;-70
2023/11/18 03:06:25;;;;;;;1999.90;999.90;;;;;;;;;;5040249;28;20332;-69
2023/11/18 03:09:10;;;;;;;1999.90;999.90;;;;;;;;;;5036156;28;20733;-69
2023/11/18 03:11:55;;;;;;;1999.90;999.90;;;;;;;;;;5044774;28;20283;-70
2023/11/18 03:14:41;;;;;;;1999.90;999.90;;;;;;;;;;5035361;28;20226;-69
2023/11/18 03:17:27;;;;;;;1999.90;999.90;;;;;;;;;;5043966;28;20214;-69
2023/11/18 03:20:15;;;;;;;1999.90;999.90;;;;;;;;;;5051724;28;20591;-69
2023/11/18 03:23:02;;;;;;;1999.90;999.90;;;;;;;;;;5040898;28;20209;-69
2023/11/18 03:25:47;;;;;;;1999.90;999.90;;;;;;;;;;5044770;28;20208;-70
2023/11/18 03:28:32;;;;;;;1999.90;999.90;;;;;;;;;;5048555;28;20405;-70
2023/11/18 03:31:17;;;;;;;1999.90;999.90;;;;;;;;;;5037329;28;20262;-69
2023/11/18 03:34:02;;;;;;;1999.90;999.90;;;;;;;;;;5045641;28;20207;-70
2023/11/18 03:36:47;;;;;;;1999.90;999.90;;;;;;;;;;5031749;28;20209;-69
2023/11/18 03:39:33;;;;;;;1999.90;999.90;;;;;;;;;;5047496;28;20314;-69
2023/11/18 03:42:18;;;;;;;1999.90;999.90;;;;;;;;;;5041465;28;20218;-69
2023/11/18 03:45:04;;;;;;;1999.90;999.90;;;;;;;;;;5046097;28;20211;-70
2023/11/18 03:47:49;;;;;;;1999.90;999.90;;;;;;;;;;5043636;28;20405;-69
2023/11/18 03:50:34;;;;;;;1999.90;999.90;;;;;;;;;;5050141;28;20433;-70
2023/11/18 03:53:19;;;;;;;1999.90;999.90;;;;;;;;;;5051215;28;20337;-70
2023/11/18 03:56:05;;;;;;;1999.90;999.90;;;;;;;;;;5045083;28;20246;-70
2023/11/18 03:58:50;;;;;;;1999.90;999.90;;;;;;;;;;5039494;28;20265;-68
2023/11/18 04:01:36;;;;;;;1999.90;999.90;;;;;;;;;;5031285;28;20712;-69
2023/11/18 04:04:21;;;;;;;1999.90;999.90;;;;;;;;;;5038994;28;20207;-69
2023/11/18 04:07:06;;;;;;;1999.90;999.90;;;;;;;;;;5045271;28;20214;-69
2023/11/18 04:09:51;;;;;;;1999.90;999.90;;;;;;;;;;5031324;28;20606;-69
2023/11/18 04:12:38;;;;;;;1999.90;999.90;;;;;;;;;;5031036;28;20273;-69
2023/11/18 04:15:24;;;;;;;1999.90;999.90;;;;;;;;;;5050923;28;20214;-69
2023/11/18 04:18:09;;;;;;;1999.90;999.90;;;;;;;;;;5045520;28;20709;-69
2023/11/18 04:20:54;;;;;;;1999.90;999.90;;;;;;;;;;5047869;28;20312;-70
2023/11/18 04:23:40;;;;;;;1999.90;999.90;;;;;;;;;;5051171;28;20223;-69
2023/11/18 04:26:25;;;;;;;1999.90;999.90;;;;;;;;;;5051230;28;20261;-69
2023/11/18 04:29:12;;;;;;;1999.90;999.90;;;;;;;;;;5051090;28;20353;-69
2023/11/18 04:31:56;;;;;;;1999.90;999.90;;;;;;;;;;5050524;28;20235;-69
2023/11/18 04:34:42;;;;;;;1999.90;999.90;;;;;;;;;;5034594;28;20218;-69
2023/11/18 04:37:27;;;;;;;1999.90;999.90;;;;;;;;;;5051086;28;20341;-70
2023/11/18 04:40:12;;;;;;;1999.90;999.90;;;;;;;;;;5051090;28;20301;-69
2023/11/18 04:42:57;;;;;;;1999.90;999.90;;;;;;;;;;5030712;28;20204;-69
2023/11/18 04:45:44;;;;;;;1999.90;999.90;;;;;;;;;;5031120;28;20218;-69
2023/11/18 04:48:29;;;;;;;1999.90;999.90;;;;;;;;;;5043873;28;20705;-69
2023/11/18 04:51:14;;;;;;;1999.90;999.90;;;;;;;;;;5044912;28;20856;-69
2023/11/18 04:53:59;;;;;;;1999.90;999.90;;;;;;;;;;5046616;28;20209;-68
2023/11/18 04:56:44;;;;;;;1999.90;999.90;;;;;;;;;;5052371;28;20218;-68
2023/11/18 04:59:30;;;;;;;1999.90;999.90;;;;;;;;;;5054341;28;20764;-69
2023/11/18 05:02:16;;;;;;;1999.90;999.90;;;;;;;;;;5047988;28;20219;-69
2023/11/18 05:05:01;;;;;;;1999.90;999.90;;;;;;;;;;5046543;28;20211;-69
2023/11/18 05:07:46;;;;;;;1999.90;999.90;;;;;;;;;;5054258;28;20296;-69
2023/11/18 05:10:31;;;;;;;1999.90;999.90;;;;;;;;;;5045815;28;20221;-68
2023/11/18 05:13:16;;;;;;;1999.90;999.90;;;;;;;;;;5053146;28;20488;-69
2023/11/18 05:16:03;;;;;;;1999.90;999.90;;;;;;;;;;5045916;28;20207;-68
2023/11/18 05:18:49;;;;;;;1999.90;999.90;;;;;;;;;;5054332;28;20216;-69
2023/11/18 05:21:34;;;;;;;1999.90;999.90;;;;;;;;;;5050893;28;20327;-69
2023/11/18 05:24:19;;;;;;;1999.90;999.90;;;;;;;;;;5042398;28;20278;-69
2023/11/18 05:27:04;;;;;;;1999.90;999.90;;;;;;;;;;5057114;28;20204;-69
2023/11/18 05:29:54;;;;;;;1999.90;999.90;;;;;;;;;;5046749;28;20307;-69
2023/11/18 05:32:40;;;;;;;1999.90;999.90;;;;;;;;;;5060666;28;20218;-69
2023/11/18 05:35:28;;;;;;;1999.90;999.90;;;;;;;;;;5045359;28;20214;-69
2023/11/18 05:38:16;;;;;;;1999.90;999.90;;;;;;;;;;5054131;28;20232;-69
2023/11/18 05:41:03;;;;;;;1999.90;999.90;;;;;;;;;;5051724;28;20724;-68
2023/11/18 05:43:51;;;;;;;1999.90;999.90;;;;;;;;;;5053927;28;20206;-69
2023/11/18 05:46:37;;;;;;;1999.90;999.90;;;;;;;;;;5050439;28;20231;-69
2023/11/18 05:49:24;;;;;;;1999.90;999.90;;;;;;;;;;5047146;28;20397;-69
2023/11/18 05:52:11;;;;;;;1999.90;999.90;;;;;;;;;;5033689;28;20750;-69
2023/11/18 05:54:56;;;;;;;1999.90;999.90;;;;;;;;;;5044618;28;20272;-69
2023/11/18 05:57:45;;;;;;;1999.90;999.90;;;;;;;;;;5058333;28;20210;-69
2023/11/18 06:00:30;;;;;;;1999.90;999.90;;;;;;;;;;5050686;28;20255;-68
2023/11/18 06:03:15;;;;;;;1999.90;999.90;;;;;;;;;;5051220;28;20207;-68
2023/11/18 06:06:00;;;;;;;1999.90;999.90;;;;;;;;;;5044482;28;20204;-68
2023/11/18 06:08:47;;;;;;;1999.90;999.90;;;;;;;;;;5057550;28;20239;-69
2023/11/18 06:11:32;;;;;;;1999.90;999.90;;;;;;;;;;5047876;28;20227;-69
2023/11/18 06:14:17;;;;;;;1999.90;999.90;;;;;;;;;;5046892;28;20497;-69
2023/11/18 06:17:03;;;;;;;1999.90;999.90;;;;;;;;;;5036331;28;20204;-69
2023/11/18 06:19:48;;;;;;;1999.90;999.90;;;;;;;;;;5042420;28;20314;-69
2023/11/18 06:22:33;;;;;;;1999.90;999.90;;;;;;;;;;5058145;28;20269;-68
2023/11/18 06:25:19;;;;;;;1999.90;999.90;;;;;;;;;;5041258;28;20298;-69
2023/11/18 06:28:07;;;;;;;1999.90;999.90;;;;;;;;;;5043458;28;20204;-68
2023/11/18 06:30:52;;;;;;;1999.90;999.90;;;;;;;;;;5051032;28;20222;-68
2023/11/18 06:33:42;;;;;;;1999.90;999.90;;;;;;;;;;5049918;28;20217;-69
2023/11/18 06:36:27;;;;;;;1999.90;999.90;;;;;;;;;;5051620;28;20401;-68
2023/11/18 06:39:13;;;;;;;1999.90;999.90;;;;;;;;;;5052415;28;20444;-69
2023/11/18 06:41:59;;;;;;;1999.90;999.90;;;;;;;;;;5052137;28;20207;-68
2023/11/18 06:44:44;;;;;;;1999.90;999.90;;;;;;;;;;5052562;28;20214;-68
2023/11/18 06:47:31;;;;;;;1999.90;999.90;;;;;;;;;;5052531;28;20733;-69
2023/11/18 06:50:16;;;;;;;1999.90;999.90;;;;;;;;;;5043056;28;20361;-67
2023/11/18 06:53:02;;;;;;;1999.90;999.90;;;;;;;;;;5043544;28;20214;-68
2023/11/18 06:55:47;;;;;;;1999.90;999.90;;;;;;;;;;5034990;28;20583;-66
2023/11/18 06:58:33;;;;;;;1999.90;999.90;;;;;;;;;;5032685;28;20702;-69
2023/11/18 07:01:19;;;;;;;1999.90;999.90;;;;;;;;;;5046032;28;20224;-69
2023/11/18 07:04:08;;;;;;;1999.90;999.90;;;;;;;;;;5051755;28;20690;-69
2023/11/18 07:06:53;;;;;;;1999.90;999.90;;;;;;;;;;5041767;28;20318;-69
2023/11/18 07:09:39;;;;;;;1999.90;999.90;;;;;;;;;;5036091;28;20240;-68
2023/11/18 07:12:24;;;;;;;1999.90;999.90;;;;;;;;;;5043921;28;20229;-70
2023/11/18 07:15:11;;;;;;;1999.90;999.90;;;;;;;;;;5050967;28;20210;-70
2023/11/18 07:17:56;;;;;;;1999.90;999.90;;;;;;;;;;5049776;28;20270;-69
2023/11/18 07:20:42;;;;;;;1999.90;999.90;;;;;;;;;;5047985;28;20401;-68
2023/11/18 07:23:27;;;;;;;1999.90;999.90;;;;;;;;;;5045817;28;20260;-69
2023/11/18 07:26:13;;;;;;;1999.90;999.90;;;;;;;;;;5044114;28;20215;-69
2023/11/18 07:28:58;;;;;;;1999.90;999.90;;;;;;;;;;5051696;28;20210;-70
2023/11/18 07:31:45;;;;;;;1999.90;999.90;;;;;;;;;;5038215;28;20228;-68
2023/11/18 07:34:32;;;;;;;1999.90;999.90;;;;;;;;;;5031801;28;20099;-70
2023/11/18 07:37:17;;;;;;;1999.90;999.90;;;;;;;;;;5044381;28;20350;-69
2023/11/18 07:40:04;;;;;;;1999.90;999.90;;;;;;;;;;5048940;28;20232;-69
2023/11/18 07:42:49;;;;;;;1999.90;999.90;;;;;;;;;;5048460;28;20750;-68
2023/11/18 07:45:37;;;;;;;1999.90;999.90;;;;;;;;;;5043477;28;20800;-68
2023/11/18 07:48:23;;;;;;;1999.90;999.90;;;;;;;;;;5032647;28;20255;-68
2023/11/18 07:51:08;;;;;;;1999.90;999.90;;;;;;;;;;5051626;28;20233;-68
2023/11/18 07:53:53;;;;;;;1999.90;999.90;;;;;;;;;;5051902;28;20214;-70
2023/11/18 07:56:39;;;;;;;1999.90;999.90;;;;;;;;;;5051758;28;20211;-69
2023/11/18 07:59:24;;;;;;;1999.90;999.90;;;;;;;;;;5050771;28;20409;-69
2023/11/18 08:02:10;;;;;;;1999.90;999.90;;;;;;;;;;5051110;28;20215;-70
2023/11/18 08:04:56;;;;;;;1999.90;999.90;;;;;;;;;;5035969;28;20216;-69
2023/11/18 08:07:43;;;;;;;1999.90;999.90;;;;;;;;;;5048876;28;20208;-68
2023/11/18 08:10:28;;;;;;;1999.90;999.90;;;;;;;;;;5050287;28;20234;-68
2023/11/18 08:13:13;;;;;;;1999.90;999.90;;;;;;;;;;5046481;28;20207;-69
2023/11/18 08:15:59;;;;;;;1999.90;999.90;;;;;;;;;;5046387;28;20225;-69
2023/11/18 08:18:44;;;;;;;1999.90;999.90;;;;;;;;;;5046441;28;20214;-69
2023/11/18 08:21:31;;;;;;;1999.90;999.90;;;;;;;;;;5045228;28;20214;-70
2023/11/18 08:24:16;;;;;;;1999.90;999.90;;;;;;;;;;5039250;28;20208;-69
2023/11/18 08:27:03;;;;;;;1999.90;999.90;;;;;;;;;;5034768;28;20285;-70
2023/11/18 08:29:49;;;;;;;1999.90;999.90;;;;;;;;;;5050274;28;20290;-69
2023/11/18 08:32:34;;;;;;;1999.90;999.90;;;;;;;;;;5054578;28;20715;-70
2023/11/18 08:35:20;;;;;;;1999.90;999.90;;;;;;;;;;5054739;28;20343;-68
2023/11/18 08:38:07;;;;;;;1999.90;999.90;;;;;;;;;;5053525;28;20258;-70
2023/11/18 08:40:52;;;;;;;1999.90;999.90;;;;;;;;;;5038000;28;20243;-69
2023/11/18 08:43:37;;;;;;;1999.90;999.90;;;;;;;;;;5040629;28;20216;-67
2023/11/18 08:46:22;;;;;;;1999.90;999.90;;;;;;;;;;5047189;28;20227;-68
2023/11/18 08:49:10;;;;;;;1999.90;999.90;;;;;;;;;;5035772;28;20246;-68
2023/11/18 08:51:58;;;;;;;1999.90;999.90;;;;;;;;;;5050901;28;20234;-69
2023/11/18 08:55:13;;;;;;;1999.90;999.90;;;;;;;;;;5041806;28;20575;-69
2023/11/18 08:58:03;;;;;;;1999.90;999.90;;;;;;;;;;5053469;28;20307;-68
2023/11/18 09:00:52;;;;;;;1999.90;999.90;;;;;;;;;;5050198;28;20619;-69
2023/11/18 09:03:42;;;;;;;1999.90;999.90;;;;;;;;;;5048942;28;20262;-69
2023/11/18 09:06:28;;;;;;;1999.90;999.90;;;;;;;;;;5054183;28;20203;-68
2023/11/18 09:09:15;;;;;;;1999.90;999.90;;;;;;;;;;5053314;28;20627;-70
2023/11/18 09:12:02;;;;;;;1999.90;999.90;;;;;;;;;;5051602;28;20355;-69
2023/11/18 09:14:49;;;;;;;1999.90;999.90;;;;;;;;;;5038608;28;20227;-69
2023/11/18 09:17:34;;;;;;;1999.90;999.90;;;;;;;;;;5039771;28;20340;-68
2023/11/18 09:20:22;;;;;;;1999.90;999.90;;;;;;;;;;5045628;28;20273;-69
2023/11/18 09:23:07;;;;;;;1999.90;999.90;;;;;;;;;;5053784;28;20295;-69
2023/11/18 09:25:53;;;;;;;1999.90;999.90;;;;;;;;;;5053990;28;20285;-70
2023/11/18 09:28:40;;;;;;;1999.90;999.90;;;;;;;;;;5047881;28;20214;-69
2023/11/18 09:31:24;;;;;;;1999.90;999.90;;;;;;;;;;5045870;28;20199;-70
2023/11/18 09:34:15;;;;;;;1999.90;999.90;;;;;;;;;;5053864;28;20266;-69
2023/11/18 09:37:00;;;;;;;1999.90;999.90;;;;;;;;;;5052075;28;20208;-69
2023/11/18 09:39:45;;;;;;;1999.90;999.90;;;;;;;;;;5033202;28;20294;-69
2023/11/18 09:42:30;;;;;;;1999.90;999.90;;;;;;;;;;5046297;28;20313;-69
2023/11/18 09:45:20;;;;;;;1999.90;999.90;;;;;;;;;;5053630;28;20215;-69
2023/11/18 09:48:07;;;;;;;1999.90;999.90;;;;;;;;;;5053607;28;20201;-69
2023/11/18 09:50:52;;;;;;;1999.90;999.90;;;;;;;;;;5053398;28;20244;-67
2023/11/18 09:53:40;;;;;;;1999.90;999.90;;;;;;;;;;5052684;28;20571;-71
2023/11/18 09:56:37;;;;;;;1999.90;999.90;;;;;;;;;;5044983;28;20646;-70
2023/11/18 09:59:24;;;;;;;1999.90;999.90;;;;;;;;;;5045153;28;20231;-71
2023/11/18 10:02:11;;;;;;;1999.90;999.90;;;;;;;;;;5052452;28;20261;-69
2023/11/18 10:04:58;;;;;;;1999.90;999.90;;;;;;;;;;5052247;28;20719;-70
2023/11/18 10:07:43;;;;;;;1999.90;999.90;;;;;;;;;;5042869;28;20669;-69
2023/11/18 10:10:36;;;;;;;1999.90;999.90;;;;;;;;;;5046568;28;20592;-68
2023/11/18 10:13:22;;;;;;;1999.90;999.90;;;;;;;;;;5048006;28;20699;-69
2023/11/18 10:16:07;;;;;;;1999.90;999.90;;;;;;;;;;5032882;28;20847;-69
2023/11/18 10:19:00;;;;;;;1999.90;999.90;;;;;;;;;;5032035;28;20213;-69
2023/11/18 10:21:48;;;;;;;1999.90;999.90;;;;;;;;;;5047526;28;20230;-69
2023/11/18 10:24:45;;;;;;;1999.90;999.90;;;;;;;;;;5045203;28;20218;-69
2023/11/18 10:27:31;;;;;;;1999.90;999.90;;;;;;;;;;5054292;28;20587;-69
2023/11/18 10:30:21;;;;;;;1999.90;999.90;;;;;;;;;;5043209;28;20306;-69
2023/11/18 10:33:07;;;;;;;1999.90;999.90;;;;;;;;;;5057522;28;20744;-69
2023/11/18 10:35:55;;;;;;;1999.90;999.90;;;;;;;;;;5041119;28;20327;-69
2023/11/18 10:38:43;;;;;;;1999.90;999.90;;;;;;;;;;5042502;28;20901;-70
2023/11/18 10:41:30;;;;;;;1999.90;999.90;;;;;;;;;;5056010;28;20211;-69
2023/11/18 10:44:15;;;;;;;1999.90;999.90;;;;;;;;;;5044422;28;20219;-69
2023/11/18 10:47:01;;;;;;;1999.90;999.90;;;;;;;;;;5052763;28;20728;-69
2023/11/18 10:49:46;;;;;;;1999.90;999.90;;;;;;;;;;5056826;28;20243;-69
2023/11/18 10:52:35;;;;;;;1999.90;999.90;;;;;;;;;;5044401;28;20587;-69
2023/11/18 10:55:19;;;;;;;1999.90;999.90;;;;;;;;;;5052474;28;20342;-69
2023/11/18 10:58:05;;;;;;;1999.90;999.90;;;;;;;;;;5054832;28;20196;-69
2023/11/18 11:00:53;;;;;;;1999.90;999.90;;;;;;;;;;5044096;28;20310;-70
2023/11/18 11:03:53;;;;;;;1999.90;999.90;;;;;;;;;;5051154;28;20689;-72
2023/11/18 11:06:41;;;;;;;1999.90;999.90;;;;;;;;;;5044446;28;20212;-70
2023/11/18 11:09:28;;;;;;;1999.90;999.90;;;;;;;;;;5047744;28;20231;-70
2023/11/18 11:12:14;;;;;;;1999.90;999.90;;;;;;;;;;5050428;28;20227;-70
2023/11/18 11:15:04;;;;;;;1999.90;999.90;;;;;;;;;;5055733;28;20207;-70
2023/11/18 11:17:49;;;;;;;1999.90;999.90;;;;;;;;;;5044800;28;20208;-70
2023/11/18 11:20:36;;;;;;;1999.90;999.90;;;;;;;;;;5046606;28;20601;-70
2023/11/18 11:23:22;;;;;;;1999.90;999.90;;;;;;;;;;5050611;28;20278;-70
2023/11/18 11:26:27;;;;;;;1999.90;999.90;;;;;;;;;;5054895;28;20215;-70
2023/11/18 11:29:26;;;;;;;1999.90;999.90;;;;;;;;;;5040031;28;20353;-69
2023/11/18 11:32:14;;;;;;;1999.90;999.90;;;;;;;;;;5034009;28;20257;-70
2023/11/18 11:35:07;;;;;;;1999.90;999.90;;;;;;;;;;5040991;28;20640;-69
2023/11/18 11:37:53;;;;;;;1999.90;999.90;;;;;;;;;;5040263;28;20776;-70
2023/11/18 11:40:38;;;;;;;1999.90;999.90;;;;;;;;;;5032958;28;20218;-70
2023/11/18 11:43:27;;;;;;;1999.90;999.90;;;;;;;;;;5041127;28;20204;-70
2023/11/18 11:46:13;;;;;;;1999.90;999.90;;;;;;;;;;5037685;28;20217;-70
2023/11/18 11:48:59;;;;;;;1999.90;999.90;;;;;;;;;;5036932;28;20209;-71
2023/11/18 11:51:48;;;;;;;1999.90;999.90;;;;;;;;;;5041111;28;20208;-71
2023/11/18 11:54:37;;;;;;;1999.90;999.90;;;;;;;;;;5034311;28;20239;-72
2023/11/18 11:57:22;;;;;;;1999.90;999.90;;;;;;;;;;5032473;28;21009;-71
2023/11/18 12:00:16;;;;;;;1999.90;999.90;;;;;;;;;;5033092;28;20318;-71
2023/11/18 12:03:04;;;;;;;1999.90;999.90;;;;;;;;;;5040865;28;20216;-70
2023/11/18 12:05:51;;;;;;;1999.90;999.90;;;;;;;;;;5046535;28;20291;-71
2023/11/18 12:08:37;;;;;;;1999.90;999.90;;;;;;;;;;5050687;28;20294;-70
2023/11/18 12:11:23;;;;;;;1999.90;999.90;;;;;;;;;;5047966;28;20348;-71
2023/11/18 12:14:19;;;;;;;1999.90;999.90;;;;;;;;;;5038069;28;20255;-70
2023/11/18 12:17:09;;;;;;;1999.90;999.90;;;;;;;;;;5043441;28;20221;-70
2023/11/18 12:19:58;;;;;;;1999.90;999.90;;;;;;;;;;5042822;28;20276;-71
2023/11/18 12:22:58;;;;;;;1999.90;999.90;;;;;;;;;;5038023;28;20249;-71
2023/11/18 12:25:45;;;;;;;1999.90;999.90;;;;;;;;;;5051514;28;20220;-71
2023/11/18 12:28:34;;;;;;;1999.90;999.90;;;;;;;;;;5062940;28;20339;-69
2023/11/18 12:31:39;;;;;;;1999.90;999.90;;;;;;;;;;5051997;28;20219;-71
2023/11/18 12:34:26;;;;;;;1999.90;999.90;;;;;;;;;;5044510;28;20208;-71
2023/11/18 12:37:26;;;;;;;1999.90;999.90;;;;;;;;;;5053942;28;20336;-71
2023/11/18 12:40:31;;;;;;;1999.90;999.90;;;;;;;;;;5043065;28;20247;-71
2023/11/18 12:43:17;;;;;;;1999.90;999.90;;;;;;;;;;5050935;28;20588;-72
2023/11/18 12:46:27;;;;;;;1999.90;999.90;;;;;;;;;;5041655;28;20705;-72
2023/11/18 12:49:15;;;;;;;1999.90;999.90;;;;;;;;;;5050951;28;20236;-72
2023/11/18 12:52:01;;;;;;;1999.90;999.90;;;;;;;;;;5054515;28;20405;-72
2023/11/18 12:54:50;;;;;;;1999.90;999.90;;;;;;;;;;5054696;28;20693;-72
2023/11/18 12:57:38;;;;;;;1999.90;999.90;;;;;;;;;;5054698;28;20228;-72
2023/11/18 13:00:27;;;;;;;1999.90;999.90;;;;;;;;;;5054684;28;20279;-72
2023/11/18 13:03:15;;;;;;;1999.90;999.90;;;;;;;;;;5054571;28;20274;-71
2023/11/18 13:06:00;;;;;;;1999.90;999.90;;;;;;;;;;5054518;28;20224;-72
2023/11/18 13:08:46;;;;;;;1999.90;999.90;;;;;;;;;;5054564;28;20212;-72
2023/11/18 13:11:31;;;;;;;1999.90;999.90;;;;;;;;;;5053558;28;20205;-72
2023/11/18 13:14:17;;;;;;;1999.90;999.90;;;;;;;;;;5054034;28;20248;-72
2023/11/18 13:17:05;;;;;;;1999.90;999.90;;;;;;;;;;5053339;28;20878;-72
2023/11/18 13:19:54;;;;;;;1999.90;999.90;;;;;;;;;;5054332;28;20224;-72
2023/11/18 13:22:39;;;;;;;1999.90;999.90;;;;;;;;;;5053756;28;20324;-72
2023/11/18 13:25:25;;;;;;;1999.90;999.90;;;;;;;;;;5054183;28;20312;-71
2023/11/18 13:28:10;;;;;;;1999.90;999.90;;;;;;;;;;5053788;28;20750;-72
2023/11/18 13:30:55;;;;;;;1999.90;999.90;;;;;;;;;;5053696;28;20287;-71
2023/11/18 13:33:41;;;;;;;1999.90;999.90;;;;;;;;;;5053836;28;20232;-71
2023/11/18 13:36:25;;;;;;;1999.90;999.90;;;;;;;;;;5053924;28;20298;-72
2023/11/18 13:39:16;;;;;;;1999.90;999.90;;;;;;;;;;5053536;28;20308;-72
2023/11/18 13:42:17;;;;;;;1999.90;999.90;;;;;;;;;;5053791;28;20209;-72
2023/11/18 13:45:12;;;;;;;1999.90;999.90;;;;;;;;;;5053805;28;20229;-72
2023/11/18 13:47:57;;;;;;;1999.90;999.90;;;;;;;;;;5053745;28;20713;-72
2023/11/18 13:50:42;;;;;;;1999.90;999.90;;;;;;;;;;5053545;28;20729;-71
2023/11/18 13:53:27;;;;;;;1999.90;999.90;;;;;;;;;;5053250;28;20227;-72
2023/11/18 13:56:12;;;;;;;1999.90;999.90;;;;;;;;;;5053564;28;20328;-72
2023/11/18 13:58:58;;;;;;;1999.90;999.90;;;;;;;;;;5053373;28;20212;-71
2023/11/18 14:01:44;;;;;;;1999.90;999.90;;;;;;;;;;5053025;28;20267;-72
2023/11/18 14:04:29;;;;;;;1999.90;999.90;;;;;;;;;;5053461;28;20204;-72
2023/11/18 14:07:15;;;;;;;1999.90;999.90;;;;;;;;;;5053306;28;20205;-72
2023/11/18 14:10:00;;;;;;;1999.90;999.90;;;;;;;;;;5053317;28;20220;-72
2023/11/18 14:13:02;;;;;;;1999.90;999.90;;;;;;;;;;5052704;28;20409;-72
2023/11/18 14:15:47;;;;;;;1999.90;999.90;;;;;;;;;;5053258;28;20212;-72
2023/11/18 14:18:33;;;;;;;1999.90;999.90;;;;;;;;;;5053058;28;20219;-72
2023/11/18 14:21:18;;;;;;;1999.90;999.90;;;;;;;;;;5052944;28;20227;-71
2023/11/18 14:24:03;;;;;;;1999.90;999.90;;;;;;;;;;5052457;28;20200;-72
2023/11/18 14:26:50;;;;;;;1999.90;999.90;;;;;;;;;;5052919;28;20306;-72
2023/11/18 14:29:36;;;;;;;1999.90;999.90;;;;;;;;;;5052915;28;20247;-72
2023/11/18 14:32:21;;;;;;;1999.90;999.90;;;;;;;;;;5052993;28;20573;-72
2023/11/18 14:35:09;;;;;;;1999.90;999.90;;;;;;;;;;5052750;28;20224;-72
2023/11/18 14:37:55;;;;;;;1999.90;999.90;;;;;;;;;;5051882;28;20416;-72
2023/11/18 14:40:41;;;;;;;1999.90;999.90;;;;;;;;;;5052773;28;20225;-72
2023/11/18 14:43:27;;;;;;;1999.90;999.90;;;;;;;;;;5052531;28;20200;-72
2023/11/18 14:46:12;;;;;;;1999.90;999.90;;;;;;;;;;5052357;28;20232;-72
2023/11/18 14:48:58;;;;;;;1999.90;999.90;;;;;;;;;;5052244;28;20201;-72
2023/11/18 14:51:44;;;;;;;1999.90;999.90;;;;;;;;;;5052603;28;20240;-72
2023/11/18 14:54:30;;;;;;;1999.90;999.90;;;;;;;;;;5052200;28;20270;-72
2023/11/18 14:57:15;;;;;;;1999.90;999.90;;;;;;;;;;5052087;28;20258;-70
2023/11/18 15:00:00;;;;;;;1999.90;999.90;;;;;;;;;;5052315;28;20228;-71
2023/11/18 15:02:47;;;;;;;1999.90;999.90;;;;;;;;;;5052069;28;20232;-71
2023/11/18 15:05:34;;;;;;;1999.90;999.90;;;;;;;;;;5052510;28;20213;-71
2023/11/18 15:08:20;;;;;;;1999.90;999.90;;;;;;;;;;5052084;28;20208;-71
2023/11/18 15:11:06;;;;;;;1999.90;999.90;;;;;;;;;;5052615;28;20739;-72
2023/11/18 15:13:52;;;;;;;1999.90;999.90;;;;;;;;;;5052013;28;20224;-72
2023/11/18 15:16:37;;;;;;;1999.90;999.90;;;;;;;;;;5052141;28;20212;-72
2023/11/18 15:19:22;;;;;;;1999.90;999.90;;;;;;;;;;5052048;28;20271;-72
2023/11/18 15:22:07;;;;;;;1999.90;999.90;;;;;;;;;;5051763;28;20208;-71
2023/11/18 15:24:59;;;;;;;1999.90;999.90;;;;;;;;;;5052564;28;20323;-72
2023/11/18 15:27:45;;;;;;;1999.90;999.90;;;;;;;;;;5052375;28;20197;-70
2023/11/18 15:30:30;;;;;;;1999.90;999.90;;;;;;;;;;5051885;28;20590;-71
2023/11/18 15:33:15;;;;;;;1999.90;999.90;;;;;;;;;;5051336;28;21076;-71
2023/11/18 15:36:01;;;;;;;1999.90;999.90;;;;;;;;;;5051247;28;20209;-71
2023/11/18 15:38:46;;;;;;;1999.90;999.90;;;;;;;;;;5051771;28;20211;-70
2023/11/18 15:41:33;;;;;;;1999.90;999.90;;;;;;;;;;5051346;28;20247;-71
2023/11/18 15:44:19;;;;;;;1999.90;999.90;;;;;;;;;;5051806;28;20200;-71
2023/11/18 15:47:05;;;;;;;1999.90;999.90;;;;;;;;;;5051603;28;20197;-70
2023/11/18 15:49:50;;;;;;;1999.90;999.90;;;;;;;;;;5051641;28;20236;-71
2023/11/18 15:52:36;;;;;;;1999.90;999.90;;;;;;;;;;5051789;28;20212;-71
2023/11/18 15:55:21;;;;;;;1999.90;999.90;;;;;;;;;;5051618;28;20225;-70
2023/11/18 15:58:09;;;;;;;1999.90;999.90;;;;;;;;;;5050696;28;20409;-71
2023/11/18 16:00:54;;;;;;;1999.90;999.90;;;;;;;;;;5051800;28;20701;-71
2023/11/18 16:03:39;;;;;;;1999.90;999.90;;;;;;;;;;5051527;28;20205;-70
2023/11/18 16:06:24;;;;;;;1999.90;999.90;;;;;;;;;;5051709;28;20339;-73
2023/11/18 16:09:09;;;;;;;1999.90;999.90;;;;;;;;;;5051775;28;20243;-70
2023/11/18 16:11:54;;;;;;;1999.90;999.90;;;;;;;;;;5051348;28;20209;-70
2023/11/18 16:14:40;;;;;;;1999.90;999.90;;;;;;;;;;5051390;28;20231;-70
2023/11/18 16:17:26;;;;;;;1999.90;999.90;;;;;;;;;;5051389;28;20584;-71
2023/11/18 16:20:14;;;;;;;1999.90;999.90;;;;;;;;;;5051429;28;20242;-71
2023/11/18 16:23:02;;;;;;;1999.90;999.90;;;;;;;;;;5051512;28;20211;-71
2023/11/18 16:25:47;;;;;;;1999.90;999.90;;;;;;;;;;5051401;28;20208;-71
2023/11/18 16:28:32;;;;;;;1999.90;999.90;;;;;;;;;;5051641;28;20212;-69
2023/11/18 16:31:18;;;;;;;1999.90;999.90;;;;;;;;;;5051224;28;20232;-69
2023/11/18 16:34:03;;;;;;;1999.90;999.90;;;;;;;;;;5052153;28;20727;-71
2023/11/18 16:36:49;;;;;;;1999.90;999.90;;;;;;;;;;5053416;28;20212;-71
2023/11/18 16:39:34;;;;;;;1999.90;999.90;;;;;;;;;;5053298;28;20608;-70
2023/11/18 16:42:23;;;;;;;1999.90;999.90;;;;;;;;;;5051568;28;20201;-69
2023/11/18 16:45:08;;;;;;;1999.90;999.90;;;;;;;;;;5051018;28;20201;-71
2023/11/18 16:47:55;;;;;;;1999.90;999.90;;;;;;;;;;5054621;28;20681;-71
2023/11/18 16:50:40;;;;;;;1999.90;999.90;;;;;;;;;;5054814;28;20229;-70
2023/11/18 16:53:25;;;;;;;1999.90;999.90;;;;;;;;;;5054523;28;20209;-70
2023/11/18 16:56:10;;;;;;;1999.90;999.90;;;;;;;;;;5054746;28;20211;-70
2023/11/18 16:58:55;;;;;;;1999.90;999.90;;;;;;;;;;5054375;28;20268;-70
2023/11/18 17:01:40;;;;;;;1999.90;999.90;;;;;;;;;;5054479;28;20208;-72
2023/11/18 17:04:26;;;;;;;1999.90;999.90;;;;;;;;;;5054567;28;20240;-70
2023/11/18 17:07:11;;;;;;;1999.90;999.90;;;;;;;;;;5054469;28;20205;-71
2023/11/18 17:09:56;;;;;;;1999.90;999.90;;;;;;;;;;5054420;28;20228;-71
2023/11/18 17:12:42;;;;;;;1999.90;999.90;;;;;;;;;;5053947;28;20205;-70
2023/11/18 17:15:28;;;;;;;1999.90;999.90;;;;;;;;;;5054081;28;20229;-70
2023/11/18 17:18:13;;;;;;;1999.90;999.90;;;;;;;;;;5053430;28;20415;-71
2023/11/18 17:21:00;;;;;;;1999.90;999.90;;;;;;;;;;5054252;28;20247;-71
2023/11/18 17:23:45;;;;;;;1999.90;999.90;;;;;;;;;;5054211;28;20201;-71
2023/11/18 17:26:29;;;;;;;1999.90;999.90;;;;;;;;;;5054338;28;20204;-71
2023/11/18 17:29:14;;;;;;;1999.90;999.90;;;;;;;;;;5054024;28;20296;-71
2023/11/18 17:31:59;;;;;;;1999.90;999.90;;;;;;;;;;5053920;28;20676;-70
2023/11/18 17:34:44;;;;;;;1999.90;999.90;;;;;;;;;;5053864;28;20360;-71
2023/11/18 17:37:30;;;;;;;1999.90;999.90;;;;;;;;;;5053911;28;20244;-71
2023/11/18 17:40:16;;;;;;;1999.90;999.90;;;;;;;;;;5053827;28;20224;-71
2023/11/18 17:43:01;;;;;;;1999.90;999.90;;;;;;;;;;5053745;28;20301;-70
2023/11/18 17:45:47;;;;;;;1999.90;999.90;;;;;;;;;;5053868;28;20208;-70
2023/11/18 17:48:32;;;;;;;1999.90;999.90;;;;;;;;;;5053958;28;20221;-71
2023/11/18 17:51:17;;;;;;;1999.90;999.90;;;;;;;;;;5053264;28;20208;-70
2023/11/18 17:54:03;;;;;;;1999.90;999.90;;;;;;;;;;5053290;28;20781;-71
2023/11/18 17:56:48;;;;;;;1999.90;999.90;;;;;;;;;;5053554;28;20296;-71
2023/11/18 17:59:34;;;;;;;1999.90;999.90;;;;;;;;;;5052776;28;20323;-71
2023/11/18 18:02:19;;;;;;;1999.90;999.90;;;;;;;;;;5053329;28;20297;-71
2023/11/18 18:05:04;;;;;;;1999.90;999.90;;;;;;;;;;5053477;28;20201;-71
2023/11/18 18:07:49;;;;;;;1999.90;999.90;;;;;;;;;;5053323;28;20213;-71
2023/11/18 18:10:36;;;;;;;1999.90;999.90;;;;;;;;;;5053288;28;20756;-71
2023/11/18 18:13:21;;;;;;;1999.90;999.90;;;;;;;;;;5052241;28;20405;-70
2023/11/18 18:16:06;;;;;;;1999.90;999.90;;;;;;;;;;5053236;28;20696;-71
2023/11/18 18:18:51;;;;;;;1999.90;999.90;;;;;;;;;;5053310;28;20256;-71